PBD436 UWKS-UUWW
Flight info
| Callsign | PBD436 |
|---|---|
| Flight time | N/A |
| Altitude | 36000 |
| Route | IRGOS1D IRGOS L158 DIMGI DIMGI3A |
| Aircraft | B738/M-SDE2E3FGHIRWXY/LB1 |
Departure
| Time | 2026-05-06 17:27 |
|---|---|
| Airport | Cheboksary Airport (UWKS) |
Arrival
| Time | N/A |
|---|---|
| Airport | Vnukovo International Airport (UUWW) |
| Time | Latitude | Longitude | Altitude | Speed | Heading |
|---|---|---|---|---|---|
| 2026-05-06 17:15 | 56.08326 | 47.32108 | 564 ft | 0 kts | 83° |
| 2026-05-06 17:23 | 56.08333 | 47.32143 | 563 ft | 6 kts | 58° |
| 2026-05-06 17:23 | 56.08379 | 47.32207 | 563 ft | 10 kts | 33° |
| 2026-05-06 17:23 | 56.08441 | 47.32321 | 562 ft | 15 kts | 53° |
| 2026-05-06 17:23 | 56.08511 | 47.32494 | 561 ft | 20 kts | 53° |
| 2026-05-06 17:24 | 56.08607 | 47.32735 | 555 ft | 26 kts | 54° |
| 2026-05-06 17:24 | 56.08714 | 47.33041 | 553 ft | 31 kts | 67° |
| 2026-05-06 17:24 | 56.08790 | 47.33439 | 551 ft | 35 kts | 71° |
| 2026-05-06 17:24 | 56.08873 | 47.33886 | 546 ft | 39 kts | 70° |
| 2026-05-06 17:25 | 56.08956 | 47.34330 | 543 ft | 37 kts | 71° |
| 2026-05-06 17:25 | 56.09034 | 47.34775 | 544 ft | 39 kts | 72° |
| 2026-05-06 17:25 | 56.09121 | 47.35222 | 545 ft | 38 kts | 70° |
| 2026-05-06 17:25 | 56.09193 | 47.35674 | 541 ft | 39 kts | 75° |
| 2026-05-06 17:26 | 56.09261 | 47.36093 | 532 ft | 13 kts | 72° |
| 2026-05-06 17:26 | 56.09282 | 47.36111 | 532 ft | 3 kts | 287° |
| 2026-05-06 17:26 | 56.09278 | 47.36085 | 532 ft | 0 kts | 251° |
| 2026-05-06 17:26 | 56.09206 | 47.35686 | 540 ft | 67 kts | 251° |
| 2026-05-06 17:27 | 56.08992 | 47.34524 | 544 ft | 127 kts | 251° |
| 2026-05-06 17:27 | 56.08666 | 47.32747 | 579 ft | 167 kts | 253° |
| 2026-05-06 17:27 | 56.08254 | 47.30690 | 879 ft | 185 kts | 252° |
| 2026-05-06 17:27 | 56.07809 | 47.28461 | 1412 ft | 195 kts | 255° |
| 2026-05-06 17:28 | 56.07386 | 47.26246 | 2187 ft | 193 kts | 250° |
| 2026-05-06 17:28 | 56.06670 | 47.24031 | 2615 ft | 216 kts | 239° |
| 2026-05-06 17:28 | 56.05771 | 47.21778 | 3032 ft | 235 kts | 239° |
| 2026-05-06 17:28 | 56.04830 | 47.19231 | 3480 ft | 254 kts | 241° |
| 2026-05-06 17:29 | 56.03895 | 47.16510 | 4188 ft | 260 kts | 242° |
| 2026-05-06 17:29 | 56.02961 | 47.13761 | 4953 ft | 264 kts | 242° |
| 2026-05-06 17:29 | 56.01995 | 47.10960 | 5723 ft | 266 kts | 241° |
| 2026-05-06 17:29 | 56.01021 | 47.08199 | 6636 ft | 267 kts | 240° |
| 2026-05-06 17:30 | 56.00014 | 47.05399 | 7401 ft | 268 kts | 238° |
| 2026-05-06 17:30 | 55.98997 | 47.02632 | 8125 ft | 272 kts | 239° |
| 2026-05-06 17:30 | 55.97972 | 46.99799 | 8907 ft | 275 kts | 240° |
| 2026-05-06 17:30 | 55.96981 | 46.96879 | 9760 ft | 276 kts | 241° |
| 2026-05-06 17:31 | 55.95998 | 46.93895 | 10307 ft | 289 kts | 241° |
| 2026-05-06 17:31 | 55.94915 | 46.90694 | 10666 ft | 309 kts | 240° |
| 2026-05-06 17:31 | 55.93758 | 46.87387 | 11099 ft | 323 kts | 240° |
| 2026-05-06 17:31 | 55.92544 | 46.83972 | 11757 ft | 330 kts | 239° |
| 2026-05-06 17:32 | 55.91301 | 46.80484 | 12450 ft | 336 kts | 239° |
| 2026-05-06 17:32 | 55.90060 | 46.76997 | 13199 ft | 340 kts | 240° |
| 2026-05-06 17:32 | 55.88791 | 46.73406 | 14042 ft | 341 kts | 240° |
| 2026-05-06 17:32 | 55.87517 | 46.69764 | 14725 ft | 347 kts | 240° |
| 2026-05-06 17:33 | 55.86253 | 46.66141 | 15485 ft | 349 kts | 240° |
| 2026-05-06 17:33 | 55.84952 | 46.62449 | 16214 ft | 353 kts | 240° |
| 2026-05-06 17:33 | 55.83656 | 46.58781 | 16884 ft | 356 kts | 240° |
| 2026-05-06 17:33 | 55.82322 | 46.55006 | 17526 ft | 361 kts | 241° |
| 2026-05-06 17:34 | 55.81027 | 46.51176 | 18185 ft | 363 kts | 244° |
| 2026-05-06 17:34 | 55.80021 | 46.47123 | 18819 ft | 363 kts | 256° |
| 2026-05-06 17:34 | 55.79572 | 46.42690 | 19448 ft | 364 kts | 269° |
| 2026-05-06 17:34 | 55.79614 | 46.38194 | 20092 ft | 365 kts | 275° |
| 2026-05-06 17:35 | 55.79810 | 46.33711 | 20722 ft | 366 kts | 275° |
| 2026-05-06 17:35 | 55.80008 | 46.29232 | 21303 ft | 369 kts | 275° |
| 2026-05-06 17:35 | 55.80178 | 46.24666 | 21891 ft | 371 kts | 274° |
| 2026-05-06 17:36 | 55.80448 | 46.15476 | 22916 ft | 378 kts | 274° |
| 2026-05-06 17:36 | 55.80579 | 46.10798 | 23508 ft | 378 kts | 274° |
| 2026-05-06 17:36 | 55.80708 | 46.06130 | 24010 ft | 381 kts | 274° |
| 2026-05-06 17:36 | 55.80843 | 46.01396 | 24380 ft | 387 kts | 274° |
| 2026-05-06 17:37 | 55.80983 | 45.96650 | 24859 ft | 389 kts | 274° |
| 2026-05-06 17:37 | 55.81132 | 45.91846 | 25300 ft | 393 kts | 275° |
| 2026-05-06 17:37 | 55.81297 | 45.86983 | 25856 ft | 393 kts | 275° |
| 2026-05-06 17:37 | 55.81470 | 45.82124 | 26199 ft | 398 kts | 275° |
| 2026-05-06 17:38 | 55.81635 | 45.77209 | 26598 ft | 401 kts | 275° |
| 2026-05-06 17:38 | 55.81789 | 45.72244 | 27088 ft | 402 kts | 274° |
| 2026-05-06 17:38 | 55.81930 | 45.67306 | 27434 ft | 406 kts | 274° |
| 2026-05-06 17:38 | 55.82062 | 45.62288 | 27768 ft | 410 kts | 274° |
| 2026-05-06 17:39 | 55.82190 | 45.57163 | 28116 ft | 413 kts | 274° |
| 2026-05-06 17:39 | 55.82310 | 45.52047 | 28559 ft | 414 kts | 274° |
| 2026-05-06 17:39 | 55.82421 | 45.46941 | 28968 ft | 415 kts | 274° |
| 2026-05-06 17:39 | 55.82531 | 45.41759 | 29384 ft | 417 kts | 274° |
| 2026-05-06 17:40 | 55.82646 | 45.36615 | 29816 ft | 417 kts | 274° |
| 2026-05-06 17:40 | 55.82774 | 45.31448 | 30346 ft | 415 kts | 274° |
| 2026-05-06 17:40 | 55.82912 | 45.26354 | 30889 ft | 413 kts | 274° |
| 2026-05-06 17:40 | 55.83048 | 45.21675 | 31298 ft | 413 kts | 274° |
| 2026-05-06 17:41 | 55.83198 | 45.16407 | 31765 ft | 412 kts | 274° |
| 2026-05-06 17:41 | 55.83331 | 45.11340 | 32356 ft | 408 kts | 274° |
| 2026-05-06 17:41 | 55.83449 | 45.06348 | 32915 ft | 405 kts | 273° |
| 2026-05-06 17:41 | 55.83567 | 45.01318 | 33504 ft | 401 kts | 273° |
| 2026-05-06 17:42 | 55.83687 | 44.96444 | 34068 ft | 397 kts | 273° |
| 2026-05-06 17:42 | 55.83801 | 44.91551 | 34593 ft | 393 kts | 273° |
| 2026-05-06 17:42 | 55.83908 | 44.86744 | 35030 ft | 391 kts | 272° |
| 2026-05-06 17:42 | 55.84014 | 44.81924 | 35295 ft | 391 kts | 273° |
| 2026-05-06 17:43 | 55.84114 | 44.77123 | 35575 ft | 391 kts | 272° |
| 2026-05-06 17:43 | 55.84208 | 44.72258 | 35845 ft | 391 kts | 272° |
| 2026-05-06 17:43 | 55.84385 | 44.62569 | 35909 ft | 397 kts | 272° |
| 2026-05-06 17:44 | 55.84574 | 44.52821 | 35909 ft | 394 kts | 272° |
| 2026-05-06 17:44 | 55.84756 | 44.43144 | 35911 ft | 390 kts | 272° |
| 2026-05-06 17:45 | 55.84937 | 44.33509 | 35911 ft | 392 kts | 271° |
| 2026-05-06 17:45 | 55.85096 | 44.23761 | 35909 ft | 395 kts | 271° |
| 2026-05-06 17:46 | 55.85204 | 44.14073 | 35911 ft | 394 kts | 270° |
| 2026-05-06 17:46 | 55.85303 | 44.04255 | 35907 ft | 395 kts | 271° |
| 2026-05-06 17:47 | 55.85415 | 43.94505 | 35908 ft | 396 kts | 271° |
| 2026-05-06 17:47 | 55.85548 | 43.84743 | 35907 ft | 395 kts | 271° |
| 2026-05-06 17:48 | 55.85669 | 43.74984 | 35906 ft | 396 kts | 271° |
| 2026-05-06 17:48 | 55.85813 | 43.65187 | 35908 ft | 397 kts | 271° |
| 2026-05-06 17:49 | 55.85971 | 43.55358 | 35914 ft | 397 kts | 271° |
| 2026-05-06 17:49 | 55.86070 | 43.45560 | 35914 ft | 398 kts | 271° |
| 2026-05-06 17:50 | 55.86171 | 43.35655 | 35912 ft | 400 kts | 271° |
| 2026-05-06 17:50 | 55.86290 | 43.25756 | 35913 ft | 400 kts | 270° |
| 2026-05-06 17:51 | 55.86389 | 43.15919 | 35910 ft | 399 kts | 270° |
| 2026-05-06 17:51 | 55.86483 | 43.06031 | 35921 ft | 400 kts | 270° |
| 2026-05-06 17:52 | 55.86574 | 42.96111 | 35928 ft | 403 kts | 270° |
| 2026-05-06 17:52 | 55.86636 | 42.86156 | 35927 ft | 402 kts | 270° |
| 2026-05-06 17:53 | 55.86657 | 42.76150 | 35926 ft | 400 kts | 270° |
| 2026-05-06 17:53 | 55.86675 | 42.66267 | 35931 ft | 402 kts | 270° |
| 2026-05-06 17:54 | 55.86695 | 42.56381 | 35930 ft | 402 kts | 270° |
| 2026-05-06 17:54 | 55.86719 | 42.46428 | 35932 ft | 403 kts | 270° |
| 2026-05-06 17:55 | 55.86776 | 42.36499 | 35931 ft | 402 kts | 271° |
| 2026-05-06 17:55 | 55.86839 | 42.26560 | 35929 ft | 403 kts | 269° |
| 2026-05-06 17:56 | 55.86856 | 42.16610 | 35925 ft | 401 kts | 269° |
| 2026-05-06 17:56 | 55.86850 | 42.06775 | 35927 ft | 400 kts | 269° |
| 2026-05-06 17:57 | 55.86842 | 41.96817 | 35934 ft | 403 kts | 269° |
| 2026-05-06 17:57 | 55.86817 | 41.86888 | 35927 ft | 404 kts | 269° |
| 2026-05-06 17:58 | 55.86762 | 41.76897 | 35926 ft | 404 kts | 268° |
| 2026-05-06 17:58 | 55.86527 | 41.66917 | 35916 ft | 403 kts | 266° |
| 2026-05-06 17:59 | 55.86150 | 41.56934 | 35915 ft | 404 kts | 266° |
| 2026-05-06 17:59 | 55.85791 | 41.46991 | 35913 ft | 405 kts | 266° |
| 2026-05-06 18:00 | 55.85455 | 41.37021 | 35917 ft | 405 kts | 266° |
| 2026-05-06 18:00 | 55.85134 | 41.27028 | 35921 ft | 405 kts | 265° |
| 2026-05-06 18:01 | 55.84818 | 41.17066 | 35917 ft | 406 kts | 265° |
| 2026-05-06 18:01 | 55.84511 | 41.07068 | 35922 ft | 407 kts | 265° |
| 2026-05-06 18:02 | 55.84178 | 40.96962 | 35923 ft | 408 kts | 265° |
| 2026-05-06 18:02 | 55.83820 | 40.86881 | 35931 ft | 406 kts | 265° |
| 2026-05-06 18:03 | 55.83455 | 40.76902 | 35944 ft | 404 kts | 265° |
| 2026-05-06 18:03 | 55.83084 | 40.66942 | 35945 ft | 403 kts | 265° |
| 2026-05-06 18:04 | 55.82687 | 40.57021 | 35868 ft | 401 kts | 265° |
| 2026-05-06 18:04 | 55.82480 | 40.52119 | 35419 ft | 399 kts | 265° |
| 2026-05-06 18:04 | 55.82271 | 40.47207 | 34764 ft | 401 kts | 264° |
| 2026-05-06 18:05 | 55.82062 | 40.42291 | 34260 ft | 396 kts | 265° |
| 2026-05-06 18:05 | 55.81856 | 40.37454 | 33775 ft | 392 kts | 265° |
| 2026-05-06 18:05 | 55.81658 | 40.32666 | 33276 ft | 388 kts | 265° |
| 2026-05-06 18:05 | 55.81458 | 40.27890 | 32784 ft | 384 kts | 265° |
| 2026-05-06 18:06 | 55.81259 | 40.23206 | 32299 ft | 380 kts | 265° |
| 2026-05-06 18:06 | 55.81060 | 40.18543 | 31829 ft | 389 kts | 265° |
| 2026-05-06 18:06 | 55.80852 | 40.13672 | 31325 ft | 405 kts | 265° |
| 2026-05-06 18:06 | 55.80636 | 40.08608 | 30774 ft | 420 kts | 266° |
| 2026-05-06 18:07 | 55.80414 | 40.03345 | 30215 ft | 435 kts | 266° |
| 2026-05-06 18:07 | 55.80191 | 39.97899 | 29634 ft | 449 kts | 266° |
| 2026-05-06 18:07 | 55.79959 | 39.92177 | 29022 ft | 463 kts | 266° |
| 2026-05-06 18:07 | 55.79719 | 39.86409 | 28415 ft | 477 kts | 266° |
| 2026-05-06 18:08 | 55.79463 | 39.80510 | 27957 ft | 480 kts | 266° |
| 2026-05-06 18:08 | 55.79162 | 39.74730 | 27925 ft | 460 kts | 265° |
| 2026-05-06 18:08 | 55.78801 | 39.69214 | 27919 ft | 439 kts | 264° |
| 2026-05-06 18:08 | 55.78410 | 39.63917 | 27918 ft | 419 kts | 263° |
| 2026-05-06 18:09 | 55.78029 | 39.58850 | 27915 ft | 400 kts | 263° |
| 2026-05-06 18:09 | 55.77673 | 39.54029 | 27915 ft | 383 kts | 263° |
| 2026-05-06 18:09 | 55.77346 | 39.49451 | 27910 ft | 366 kts | 263° |
| 2026-05-06 18:09 | 55.77045 | 39.45116 | 27914 ft | 352 kts | 264° |
| 2026-05-06 18:10 | 55.76749 | 39.40797 | 27914 ft | 350 kts | 264° |
| 2026-05-06 18:10 | 55.76450 | 39.36469 | 27913 ft | 357 kts | 264° |
| 2026-05-06 18:10 | 55.76144 | 39.32091 | 27909 ft | 359 kts | 263° |
| 2026-05-06 18:10 | 55.75835 | 39.27713 | 27905 ft | 358 kts | 263° |
| 2026-05-06 18:11 | 55.75521 | 39.23302 | 27911 ft | 357 kts | 263° |
| 2026-05-06 18:11 | 55.75209 | 39.18916 | 27908 ft | 357 kts | 263° |
| 2026-05-06 18:11 | 55.74897 | 39.14549 | 27913 ft | 357 kts | 263° |
| 2026-05-06 18:11 | 55.74588 | 39.10226 | 27917 ft | 356 kts | 263° |
| 2026-05-06 18:12 | 55.74274 | 39.05864 | 27919 ft | 357 kts | 263° |
| 2026-05-06 18:12 | 55.73957 | 39.01474 | 27921 ft | 357 kts | 263° |
| 2026-05-06 18:12 | 55.73635 | 38.97057 | 27772 ft | 360 kts | 263° |
| 2026-05-06 18:12 | 55.73313 | 38.92670 | 27391 ft | 357 kts | 263° |
| 2026-05-06 18:13 | 55.72990 | 38.88364 | 26952 ft | 353 kts | 262° |
| 2026-05-06 18:13 | 55.72657 | 38.84048 | 26488 ft | 349 kts | 262° |
| 2026-05-06 18:13 | 55.72323 | 38.79791 | 26039 ft | 345 kts | 262° |
| 2026-05-06 18:13 | 55.71987 | 38.75531 | 25581 ft | 341 kts | 262° |
| 2026-05-06 18:14 | 55.71662 | 38.71403 | 25141 ft | 337 kts | 262° |
| 2026-05-06 18:14 | 55.71339 | 38.67281 | 24706 ft | 334 kts | 262° |
| 2026-05-06 18:14 | 55.71033 | 38.63263 | 24274 ft | 330 kts | 262° |
| 2026-05-06 18:14 | 55.70732 | 38.59238 | 23842 ft | 327 kts | 262° |
| 2026-05-06 18:15 | 55.70437 | 38.55278 | 23428 ft | 323 kts | 262° |
| 2026-05-06 18:15 | 55.70140 | 38.51339 | 23006 ft | 320 kts | 262° |
| 2026-05-06 18:15 | 55.69846 | 38.47497 | 22604 ft | 317 kts | 262° |
| 2026-05-06 18:15 | 55.69550 | 38.43653 | 22179 ft | 313 kts | 262° |
| 2026-05-06 18:16 | 55.69256 | 38.39823 | 21777 ft | 310 kts | 262° |
| 2026-05-06 18:16 | 55.68967 | 38.36063 | 21358 ft | 306 kts | 262° |
| 2026-05-06 18:16 | 55.68682 | 38.32354 | 20967 ft | 303 kts | 262° |
| 2026-05-06 18:16 | 55.68400 | 38.28714 | 20554 ft | 299 kts | 262° |
| 2026-05-06 18:17 | 55.68129 | 38.25247 | 20209 ft | 294 kts | 262° |
| 2026-05-06 18:17 | 55.67837 | 38.21513 | 19937 ft | 294 kts | 262° |
| 2026-05-06 18:17 | 55.67549 | 38.17878 | 19920 ft | 307 kts | 261° |
| 2026-05-06 18:17 | 55.67242 | 38.14102 | 19920 ft | 312 kts | 261° |
| 2026-05-06 18:18 | 55.66930 | 38.10276 | 19917 ft | 312 kts | 261° |
| 2026-05-06 18:18 | 55.66619 | 38.06467 | 19915 ft | 311 kts | 261° |
| 2026-05-06 18:18 | 55.66313 | 38.02697 | 19916 ft | 309 kts | 261° |
| 2026-05-06 18:18 | 55.66006 | 37.98932 | 19912 ft | 309 kts | 261° |
| 2026-05-06 18:19 | 55.65697 | 37.95184 | 19736 ft | 310 kts | 261° |
| 2026-05-06 18:19 | 55.65379 | 37.91394 | 19363 ft | 306 kts | 261° |
| 2026-05-06 18:19 | 55.64964 | 37.87808 | 19009 ft | 302 kts | 254° |
| 2026-05-06 18:19 | 55.64222 | 37.84366 | 18919 ft | 297 kts | 244° |
| 2026-05-06 18:20 | 55.63221 | 37.81159 | 18764 ft | 296 kts | 240° |
| 2026-05-06 18:20 | 55.62157 | 37.78084 | 18409 ft | 292 kts | 240° |
| 2026-05-06 18:20 | 55.61121 | 37.75033 | 18030 ft | 288 kts | 241° |
| 2026-05-06 18:20 | 55.60123 | 37.71983 | 17663 ft | 284 kts | 242° |
| 2026-05-06 18:21 | 55.59150 | 37.68971 | 17303 ft | 281 kts | 242° |
| 2026-05-06 18:21 | 55.58184 | 37.66008 | 16942 ft | 278 kts | 242° |
| 2026-05-06 18:21 | 55.57209 | 37.63050 | 16576 ft | 275 kts | 242° |
| 2026-05-06 18:21 | 55.56197 | 37.60235 | 16215 ft | 274 kts | 235° |
| 2026-05-06 18:22 | 55.54809 | 37.57871 | 15952 ft | 289 kts | 216° |
| 2026-05-06 18:22 | 55.52902 | 37.56480 | 15922 ft | 307 kts | 196° |
| 2026-05-06 18:22 | 55.50755 | 37.55988 | 15712 ft | 308 kts | 188° |
| 2026-05-06 18:22 | 55.48644 | 37.55708 | 15337 ft | 304 kts | 189° |
| 2026-05-06 18:23 | 55.46551 | 37.55321 | 14974 ft | 300 kts | 192° |
| 2026-05-06 18:23 | 55.44494 | 37.54829 | 14922 ft | 301 kts | 192° |
| 2026-05-06 18:23 | 55.42390 | 37.54311 | 14924 ft | 303 kts | 192° |
| 2026-05-06 18:23 | 55.40303 | 37.53825 | 14790 ft | 306 kts | 192° |
| 2026-05-06 18:24 | 55.38194 | 37.53367 | 14448 ft | 303 kts | 191° |
| 2026-05-06 18:24 | 55.36109 | 37.52948 | 14070 ft | 300 kts | 190° |
| 2026-05-06 18:24 | 55.34018 | 37.52751 | 13939 ft | 300 kts | 184° |
| 2026-05-06 18:24 | 55.31901 | 37.52873 | 13907 ft | 307 kts | 181° |
| 2026-05-06 18:25 | 55.29760 | 37.53130 | 13691 ft | 308 kts | 180° |
| 2026-05-06 18:25 | 55.28953 | 37.53229 | 13581 ft | 307 kts | 180° |